Cantonment, Florida
Current Conditions -  °F | °C
As of 1:00 PM on Monday 22 Dec 2014 (Local Time) from KPNS Reporting Station
Scattered Clouds Scattered Clouds  
Wind Chill: 65°   Ceiling: Unl
Heat Index: 65°   Visibility: 10mi
Dew Point: 62°   Wind: 10mph
Humidity: 90%   Direction: 120°ESE
Pressure: 29.8"   Gusts: NA
Location:  30.61°N, 87.34°W
Report Text: KPNS 221900Z 12009KT 10SM SCT005 18/17 A2980 RMK AO2 T01830167
Loading
Personal Weather Stations






























Interactive Weather Map New forecast layout! Learn more

10-Day Weather Forecast

Advertisements
Track Severe Weather on mobile